Time;durP1;ratioP1;P1;durP2;ratioP2;P2;SDS_P1;SDS_P2;PMS_P1;PMS_P2;Temp;Humidity;BMP_temperature;BMP_pressure;BME280_temperature;BME280_humidity;BME280_pressure;Samples;Min_cycle;Max_cycle;Signal;HPM_P1;HPM_P2
2022/02/02 00:00:52;;;;;;;;;;;;;;;2.02;80.58;99647.97;5106084;28;19918;-65
2022/02/02 00:03:20;;;;;;;;;;;;;;;2.02;80.91;99655.91;5107984;28;19934;-65
2022/02/02 00:08:21;;;;;;;;;;;;;;;2.04;81.18;99643.44;5107172;28;19996;-65
2022/02/02 00:19:01;;;;;;;;;;;;;;;2.07;81.54;99636.13;5045118;28;20451;-65
2022/02/02 00:23:58;;;;;;;;;;;;;;;2.16;81.04;99646.13;5108023;28;19916;-65
2022/02/02 00:26:29;;;;;;;;;;;;;;;2.17;80.92;99626.66;5089667;28;20010;-65
2022/02/02 00:29:00;;;;;;;;;;;;;;;2.18;80.79;99627.53;5090793;28;19965;-65
2022/02/02 00:31:33;;;;;;;;;;;;;;;2.23;80.46;99630.72;5093811;28;20264;-65
2022/02/02 00:34:03;;;;;;;;;;;;;;;2.24;80.30;99633.28;5104220;28;19912;-65
2022/02/02 00:36:37;;;;;;;;;;;;;;;2.29;80.32;99628.53;5104725;28;19955;-67
2022/02/02 00:39:02;;;;;;;;;;;;;;;2.34;79.42;99633.50;5102134;28;19916;-66
2022/02/02 00:41:28;;;;;;;;;;;;;;;2.34;79.43;99620.28;5093946;28;19919;-65
2022/02/02 00:43:59;;;;;;;;;;;;;;;2.38;79.90;99618.31;5101285;28;19962;-66
2022/02/02 00:46:26;;;;;;;;;;;;;;;2.41;79.47;99624.22;5091984;28;19963;-65
2022/02/02 00:49:00;;;;;;;;;;;;;;;2.45;79.43;99624.88;5095833;28;19916;-65
2022/02/02 00:51:33;;;;;;;;;;;;;;;2.43;79.43;99617.03;5101421;28;19915;-65
2022/02/02 00:53:58;;;;;;;;;;;;;;;2.45;79.25;99620.41;5101531;28;20241;-67
2022/02/02 00:56:23;;;;;;;;;;;;;;;2.45;79.41;99615.13;5096615;28;19927;-67
2022/02/02 00:58:49;;;;;;;;;;;;;;;2.52;78.67;99612.94;5108163;28;20011;-67
2022/02/02 01:01:14;;;;;;;;;;;;;;;2.55;78.83;99624.19;5092907;28;19923;-67
2022/02/02 01:03:39;;;;;;;;;;;;;;;2.55;79.70;99607.44;5095576;28;19919;-67
2022/02/02 01:06:07;;;;;;;;;;;;;;;2.64;80.94;99620.06;5095432;28;19969;-67
2022/02/02 01:08:55;;;;;;;;;;;;;;;2.70;83.91;99609.91;5105785;28;19922;-67
2022/02/02 01:22:15;;;;;;;;;;;;;;;2.63;92.76;99589.22;5103314;28;19919;-67
2022/02/02 01:29:57;;;;;;;;;;;;;;;2.55;95.29;99565.97;5098620;28;19965;-67
2022/02/02 01:32:23;;;;;;;;;;;;;;;2.54;96.06;99568.72;5108172;28;19911;-67
2022/02/02 01:34:48;;;;;;;;;;;;;;;2.49;96.52;99550.50;5096635;28;19919;-65
2022/02/02 01:37:17;;;;;;;;;;;;;;;2.42;96.47;99550.03;5092622;28;19952;-65
2022/02/02 01:39:42;;;;;;;;;;;;;;;2.33;97.45;99544.53;5102875;28;19915;-65
2022/02/02 01:42:12;;;;;;;;;;;;;;;2.28;97.96;99539.53;5099501;28;19919;-65
2022/02/02 01:44:47;;;;;;;;;;;;;;;2.27;98.00;99531.69;5092330;28;20360;-65
2022/02/02 01:47:13;;;;;;;;;;;;;;;2.27;97.12;99524.63;5091021;28;19946;-65
2022/02/02 01:55:03;;;;;;;;;;;;;;;2.28;96.91;99531.59;5098273;28;20026;-66
2022/02/02 01:58:01;;;;;;;;;;;;;;;2.31;96.67;99526.09;5106842;28;19916;-66
2022/02/02 02:00:26;;;;;;;;;;;;;;;2.29;96.80;99535.94;5109232;28;20383;-64
2022/02/02 02:02:51;;;;;;;;;;;;;;;2.28;96.99;99534.25;5099128;28;19916;-67
2022/02/02 02:05:17;;;;;;;;;;;;;;;2.33;96.35;99528.66;5107726;28;19919;-67
2022/02/02 02:07:43;;;;;;;;;;;;;;;2.27;96.25;99524.63;5091670;28;20302;-67
2022/02/02 02:10:08;;;;;;;;;;;;;;;2.32;95.56;99529.59;5103264;28;20583;-67
2022/02/02 02:12:41;;;;;;;;;;;;;;;2.23;96.17;99517.81;5105107;28;19976;-66
2022/02/02 02:15:09;;;;;;;;;;;;;;;2.30;96.78;99516.47;5106120;28;19943;-67
2022/02/02 02:17:35;;;;;;;;;;;;;;;2.20;96.86;99504.78;5092682;28;20007;-67
2022/02/02 02:20:00;;;;;;;;;;;;;;;2.24;97.18;99511.59;5100737;28;20003;-67
2022/02/02 02:22:30;;;;;;;;;;;;;;;2.19;98.31;99504.91;5099350;28;19919;-67
2022/02/02 02:24:56;;;;;;;;;;;;;;;2.13;99.05;99505.34;5100025;28;19912;-67
2022/02/02 02:27:24;;;;;;;;;;;;;;;2.11;99.79;99510.72;5107096;28;20094;-67
2022/02/02 02:30:11;;;;;;;;;;;;;;;2.12;99.81;99507.13;5112641;27;19964;-66
2022/02/02 02:33:07;;;;;;;;;;;;;;;2.11;100.00;99508.09;5108324;27;21259;-67
2022/02/02 02:57:17;;;;;;;;;;;;;;;1.85;100.00;99453.44;5097625;28;20300;-67
2022/02/02 02:59:59;;;;;;;;;;;;;;;1.90;100.00;99455.75;5096946;28;19919;-67
2022/02/02 04:07:00;;;;;;;;;;;;;;;1.98;100.00;99414.66;5114110;28;19916;-65
2022/02/02 04:09:28;;;;;;;;;;;;;;;1.96;100.00;99415.69;5105062;28;20303;-65
2022/02/02 04:39:12;;;;;;;;;;;;;;;2.08;96.99;99378.72;5094380;28;19922;-65
2022/02/02 04:55:11;;;;;;;;;;;;;;;2.25;97.22;99399.56;5114142;28;19915;-65
2022/02/02 05:03:39;;;;;;;;;;;;;;;2.33;96.57;99394.56;5113691;28;20276;-65
2022/02/02 05:08:29;;;;;;;;;;;;;;;2.46;96.22;99388.44;5103543;28;19981;-65
2022/02/02 05:17:07;;;;;;;;;;;;;;;2.66;94.37;99369.34;5100968;28;20300;-65
2022/02/02 05:22:05;;;;;;;;;;;;;;;2.61;94.20;99371.50;5110458;28;20433;-65
2022/02/02 05:51:34;;;;;;;;;;;;;;;2.49;98.78;99377.63;5100024;28;20379;-65
2022/02/02 05:54:01;;;;;;;;;;;;;;;2.50;99.37;99387.25;5099982;28;19915;-65
2022/02/02 05:56:28;;;;;;;;;;;;;;;2.48;99.81;99390.00;5112895;28;20010;-65
2022/02/02 05:58:54;;;;;;;;;;;;;;;2.49;99.74;99385.56;5103824;28;19920;-65
2022/02/02 06:01:19;;;;;;;;;;;;;;;2.49;100.00;99396.16;5102981;28;20057;-65
2022/02/02 06:03:56;;;;;;;;;;;;;;;2.50;100.00;99406.63;5092049;28;19923;-65
2022/02/02 06:06:22;;;;;;;;;;;;;;;2.50;100.00;99405.78;5097450;28;19912;-65
2022/02/02 06:08:48;;;;;;;;;;;;;;;2.50;100.00;99403.13;5108142;28;19920;-65
2022/02/02 06:11:16;;;;;;;;;;;;;;;2.52;100.00;99410.03;5092705;28;19916;-65
2022/02/02 06:13:45;;;;;;;;;;;;;;;2.50;100.00;99411.06;5105261;28;19920;-65
2022/02/02 06:16:11;;;;;;;;;;;;;;;2.51;100.00;99407.50;5091997;28;20399;-65
2022/02/02 06:18:37;;;;;;;;;;;;;;;2.52;100.00;99398.59;5096090;28;19912;-65
2022/02/02 06:21:05;;;;;;;;;;;;;;;2.53;100.00;99402.91;5092991;28;19916;-66
2022/02/02 06:23:33;;;;;;;;;;;;;;;2.51;100.00;99404.84;5099713;28;19945;-65
2022/02/02 06:26:02;;;;;;;;;;;;;;;2.52;100.00;99403.88;5101989;28;20042;-65
2022/02/02 06:28:30;;;;;;;;;;;;;;;2.52;100.00;99411.81;5111336;28;20364;-66
2022/02/02 06:30:57;;;;;;;;;;;;;;;2.50;100.00;99406.63;5090163;28;19912;-66
2022/02/02 06:33:25;;;;;;;;;;;;;;;2.52;100.00;99403.88;5106795;27;19915;-66
2022/02/02 06:35:52;;;;;;;;;;;;;;;2.54;100.00;99409.94;5103394;28;19911;-65
2022/02/02 06:38:17;;;;;;;;;;;;;;;2.36;100.00;99378.47;5094298;28;19916;-66
2022/02/02 06:40:44;;;;;;;;;;;;;;;2.53;100.00;99390.56;5097025;28;20011;-66
2022/02/02 06:43:09;;;;;;;;;;;;;;;2.54;100.00;99397.53;5090714;28;19936;-65
2022/02/02 06:45:35;;;;;;;;;;;;;;;2.52;100.00;99399.44;5095662;28;20366;-66
2022/02/02 06:48:00;;;;;;;;;;;;;;;2.51;100.00;99394.25;5093684;28;19970;-65
2022/02/02 06:50:33;;;;;;;;;;;;;;;2.51;100.00;99391.63;5107274;28;19915;-65
2022/02/02 06:53:48;;;;;;;;;;;;;;;2.52;100.00;99393.31;5097059;28;20399;-66
2022/02/02 06:57:04;;;;;;;;;;;;;;;2.51;100.00;99392.44;5091728;28;20327;-66
2022/02/02 07:04:34;;;;;;;;;;;;;;;2.47;100.00;99396.25;5092723;28;19920;-65
2022/02/02 07:07:22;;;;;;;;;;;;;;;2.44;100.00;99391.19;5099367;28;19912;-66
2022/02/02 07:10:15;;;;;;;;;;;;;;;2.48;100.00;99389.19;5088273;28;19916;-65
2022/02/02 07:21:22;;;;;;;;;;;;;;;2.68;100.00;99393.91;5098727;28;19922;-65
2022/02/02 07:26:50;;;;;;;;;;;;;;;2.73;100.00;99397.06;5106099;28;19926;-66
2022/02/02 07:29:35;;;;;;;;;;;;;;;2.79;100.00;99386.06;5101829;28;19973;-66
2022/02/02 07:34:56;;;;;;;;;;;;;;;2.95;100.00;99395.47;5105338;28;19926;-66
2022/02/02 07:37:31;;;;;;;;;;;;;;;3.02;100.00;99402.00;5098477;28;19998;-66
2022/02/02 07:40:00;;;;;;;;;;;;;;;3.16;100.00;99391.25;5101167;28;19918;-66
2022/02/02 07:42:26;;;;;;;;;;;;;;;3.25;100.00;99405.63;5092599;28;19991;-66
2022/02/02 07:44:53;;;;;;;;;;;;;;;3.29;100.00;99405.28;5105102;28;20007;-66
2022/02/02 07:47:19;;;;;;;;;;;;;;;3.39;100.00;99410.78;5099209;28;19912;-66
2022/02/02 07:49:50;;;;;;;;;;;;;;;3.53;100.00;99410.59;5092254;28;20018;-68
2022/02/02 07:52:20;;;;;;;;;;;;;;;3.57;100.00;99423.53;5104537;28;19927;-67
2022/02/02 07:54:47;;;;;;;;;;;;;;;3.67;99.85;99415.72;5105914;28;19912;-67
2022/02/02 07:57:16;;;;;;;;;;;;;;;3.80;99.76;99421.81;5101160;28;20248;-67
2022/02/02 07:59:54;;;;;;;;;;;;;;;3.87;98.56;99421.25;5091754;28;19918;-67
2022/02/02 08:02:26;;;;;;;;;;;;;;;4.01;97.46;99421.06;5101529;28;20368;-67
2022/02/02 08:04:51;;;;;;;;;;;;;;;4.04;96.54;99417.34;5095443;28;20056;-67
2022/02/02 08:07:24;;;;;;;;;;;;;;;4.12;95.93;99412.28;5102154;28;20010;-67
2022/02/02 08:10:03;;;;;;;;;;;;;;;4.16;95.63;99409.28;5098710;28;19920;-67
2022/02/02 08:12:33;;;;;;;;;;;;;;;4.18;95.74;99406.50;5098667;28;20041;-67
2022/02/02 08:14:58;;;;;;;;;;;;;;;4.21;95.43;99404.47;5106307;28;19964;-68
2022/02/02 08:17:23;;;;;;;;;;;;;;;4.26;95.04;99398.81;5103564;28;20347;-68
2022/02/02 08:19:52;;;;;;;;;;;;;;;4.31;95.31;99407.25;5098614;28;19922;-67
2022/02/02 08:22:17;;;;;;;;;;;;;;;4.34;94.97;99412.34;5104708;28;20007;-66
2022/02/02 08:24:42;;;;;;;;;;;;;;;4.35;94.50;99422.84;5099636;28;20551;-66
2022/02/02 08:27:08;;;;;;;;;;;;;;;4.43;94.55;99420.47;5108217;28;19920;-66
2022/02/02 08:29:33;;;;;;;;;;;;;;;4.55;93.40;99431.94;5090404;28;20019;-65
2022/02/02 08:31:58;;;;;;;;;;;;;;;4.62;93.33;99427.84;5108208;28;20277;-65
2022/02/02 08:34:24;;;;;;;;;;;;;;;4.82;92.75;99427.13;5103138;28;19922;-65
2022/02/02 08:36:54;;;;;;;;;;;;;;;4.93;92.05;99429.75;5093081;28;19916;-66
2022/02/02 08:41:56;;;;;;;;;;;;;;;5.18;90.86;99423.34;5105106;28;19915;-66
2022/02/02 08:44:26;;;;;;;;;;;;;;;5.41;89.49;99422.34;5096206;28;20007;-65
2022/02/02 08:47:05;;;;;;;;;;;;;;;5.53;89.08;99424.84;5100454;28;19916;-65
2022/02/02 08:49:35;;;;;;;;;;;;;;;5.63;87.67;99425.78;5098066;28;20273;-66
2022/02/02 08:52:02;;;;;;;;;;;;;;;5.87;85.12;99412.34;5098731;28;20372;-66
2022/02/02 08:54:44;;;;;;;;;;;;;;;5.86;85.16;99419.47;5091334;28;19912;-65
2022/02/02 09:00:06;;;;;;;;;;;;;;;5.99;83.83;99411.28;5101594;28;19912;-66
2022/02/02 09:02:28;;;;;;;;;;;;;;;6.00;83.76;99405.84;5112390;28;20373;-65
2022/02/02 09:07:38;;;;;;;;;;;;;;;5.80;85.78;99409.28;5095601;28;19919;-65
2022/02/02 09:10:13;;;;;;;;;;;;;;;5.85;85.81;99412.47;5095022;28;19919;-65
2022/02/02 09:23:33;;;;;;;;;;;;;;;6.24;85.85;99418.91;5098279;28;20376;-66
2022/02/02 09:34:03;;;;;;;;;;;;;;;6.61;84.59;99418.31;5095652;28;19919;-66
2022/02/02 09:36:32;;;;;;;;;;;;;;;6.86;83.50;99419.69;5103442;28;19969;-66
2022/02/02 09:39:00;;;;;;;;;;;;;;;6.95;81.50;99427.75;5105353;28;19947;-66
2022/02/02 09:41:43;;;;;;;;;;;;;;;6.95;80.40;99403.75;5097196;28;20330;-65
2022/02/02 09:44:11;;;;;;;;;;;;;;;7.07;80.63;99411.66;5109012;28;19941;-65
2022/02/02 09:47:04;;;;;;;;;;;;;;;7.11;80.40;99405.91;5112761;28;19915;-65
2022/02/02 09:49:46;;;;;;;;;;;;;;;7.19;78.77;99405.25;5112778;28;19927;-66
2022/02/02 09:52:17;;;;;;;;;;;;;;;7.34;76.86;99411.88;5098035;28;20403;-65
2022/02/02 09:58:06;;;;;;;;;;;;;;;7.36;78.33;99407.25;5107478;28;19927;-65
2022/02/02 10:00:58;;;;;;;;;;;;;;;7.50;77.06;99404.19;5099709;28;19918;-66
2022/02/02 10:03:46;;;;;;;;;;;;;;;7.52;76.28;99412.91;5108529;28;19990;-66
2022/02/02 10:06:18;;;;;;;;;;;;;;;7.61;76.35;99420.91;5091989;28;19923;-66
2022/02/02 10:14:14;;;;;;;;;;;;;;;7.77;75.65;99397.19;5097795;28;19915;-66
2022/02/02 10:16:48;;;;;;;;;;;;;;;7.90;73.29;99394.28;5091216;28;19926;-66
2022/02/02 10:19:20;;;;;;;;;;;;;;;7.96;73.60;99386.53;5101318;28;19916;-66
2022/02/02 10:21:45;;;;;;;;;;;;;;;7.90;74.05;99378.25;5098063;28;19912;-66
2022/02/02 10:24:11;;;;;;;;;;;;;;;7.75;74.61;99383.16;5104523;28;20368;-66
2022/02/02 10:26:43;;;;;;;;;;;;;;;7.87;73.98;99376.69;5102680;28;19998;-66
2022/02/02 10:29:10;;;;;;;;;;;;;;;7.87;74.12;99358.00;5098925;28;20425;-66
2022/02/02 10:31:42;;;;;;;;;;;;;;;7.90;72.98;99376.41;5104174;28;19961;-66
2022/02/02 10:34:15;;;;;;;;;;;;;;;7.85;73.46;99364.47;5105601;28;20257;-65
2022/02/02 10:36:41;;;;;;;;;;;;;;;7.86;74.25;99377.69;5103370;28;19915;-66
2022/02/02 10:39:10;;;;;;;;;;;;;;;7.94;72.61;99368.97;5098227;28;20280;-65
2022/02/02 10:41:43;;;;;;;;;;;;;;;7.91;72.89;99358.56;5106791;28;19920;-66
2022/02/02 10:44:17;;;;;;;;;;;;;;;7.88;72.77;99364.19;5106636;28;19922;-66
2022/02/02 10:46:57;;;;;;;;;;;;;;;7.85;73.96;99360.00;5092692;28;19922;-66
2022/02/02 10:51:56;;;;;;;;;;;;;;;8.07;72.51;99351.69;5104453;28;19995;-69
2022/02/02 10:58:03;;;;;;;;;;;;;;;8.14;70.95;99365.31;5099872;28;19915;-69
2022/02/02 11:07:56;;;;;;;;;;;;;;;8.02;73.26;99353.06;5101302;28;19923;-70
2022/02/02 11:10:25;;;;;;;;;;;;;;;8.14;72.09;99362.63;5092188;28;19975;-70
2022/02/02 11:12:52;;;;;;;;;;;;;;;8.31;70.52;99362.78;5099648;28;19912;-69
2022/02/02 11:15:24;;;;;;;;;;;;;;;8.29;70.35;99375.41;5102095;28;20457;-70
2022/02/02 11:18:10;;;;;;;;;;;;;;;8.27;69.45;99350.69;5110190;28;19911;-70
2022/02/02 11:20:37;;;;;;;;;;;;;;;8.38;70.21;99361.22;5100035;28;19912;-69
2022/02/02 11:23:05;;;;;;;;;;;;;;;8.30;70.60;99360.25;5104258;28;19990;-69
2022/02/02 11:25:33;;;;;;;;;;;;;;;8.39;69.24;99356.72;5109527;28;20003;-70
2022/02/02 11:27:59;;;;;;;;;;;;;;;8.48;69.34;99356.69;5094112;28;19923;-70
2022/02/02 11:30:37;;;;;;;;;;;;;;;8.42;68.88;99351.91;5103061;28;19926;-72
2022/02/02 11:33:14;;;;;;;;;;;;;;;8.41;68.58;99346.72;5090017;28;19919;-68
2022/02/02 11:38:24;;;;;;;;;;;;;;;8.67;68.54;99340.59;5099793;28;20300;-69
2022/02/02 11:41:06;;;;;;;;;;;;;;;8.86;67.15;99347.69;5101921;28;19951;-69
2022/02/02 11:43:50;;;;;;;;;;;;;;;8.76;67.68;99339.72;5089916;28;19923;-69
2022/02/02 11:46:34;;;;;;;;;;;;;;;8.68;67.61;99341.44;5090211;28;19911;-70
2022/02/02 11:49:04;;;;;;;;;;;;;;;8.81;68.11;99347.28;5100772;28;20378;-69
2022/02/02 11:51:39;;;;;;;;;;;;;;;8.88;67.38;99343.03;5101068;28;20002;-70
2022/02/02 11:54:07;;;;;;;;;;;;;;;8.90;67.02;99357.13;5091865;28;19911;-69
2022/02/02 11:56:52;;;;;;;;;;;;;;;9.15;65.26;99345.69;5099769;28;19920;-69
2022/02/02 12:02:33;;;;;;;;;;;;;;;9.33;62.85;99352.75;5071379;28;19919;-69
2022/02/02 12:05:15;;;;;;;;;;;;;;;9.25;63.45;99355.38;5102945;28;20332;-69
2022/02/02 12:08:19;;;;;;;;;;;;;;;9.40;62.78;99358.38;5088370;28;19916;-70
2022/02/02 13:00:12;;;;;;;;;;;;;;;9.60;57.56;99367.94;5105151;28;19951;-70
2022/02/02 13:02:38;;;;;;;;;;;;;;;9.67;55.99;99362.84;5095591;28;20245;-66
2022/02/02 13:05:04;;;;;;;;;;;;;;;9.56;56.39;99368.41;5110695;28;19919;-66
2022/02/02 13:07:31;;;;;;;;;;;;;;;9.55;56.90;99364.91;5102329;28;19912;-66
2022/02/02 13:09:57;;;;;;;;;;;;;;;9.49;57.30;99376.22;5099282;28;19926;-66
2022/02/02 13:12:25;;;;;;;;;;;;;;;9.65;55.92;99372.84;5101191;28;19912;-66
2022/02/02 13:20:51;;;;;;;;;;;;;;;9.49;56.41;99381.56;5093069;28;19995;-65
2022/02/02 13:23:34;;;;;;;;;;;;;;;9.65;55.99;99388.91;5096592;28;19919;-65
2022/02/02 13:26:03;;;;;;;;;;;;;;;9.69;56.14;99399.16;5102184;28;19915;-66
2022/02/02 13:28:35;;;;;;;;;;;;;;;9.61;58.15;99404.41;5105120;28;20015;-67
2022/02/02 13:31:01;;;;;;;;;;;;;;;9.76;58.82;99410.94;5094705;28;19911;-66
2022/02/02 13:33:34;;;;;;;;;;;;;;;9.66;58.87;99414.69;5111182;28;19917;-65
2022/02/02 13:36:17;;;;;;;;;;;;;;;9.67;58.48;99419.06;5096614;28;19916;-66
2022/02/02 13:39:21;;;;;;;;;;;;;;;9.76;59.67;99427.03;5096155;28;19988;-66
2022/02/02 13:47:22;;;;;;;;;;;;;;;9.43;58.26;99418.78;5097799;28;19912;-66
2022/02/02 13:50:41;;;;;;;;;;;;;;;9.45;58.00;99411.44;5091477;28;19920;-66
2022/02/02 13:53:10;;;;;;;;;;;;;;;9.44;57.39;99421.28;5091882;28;19937;-66
2022/02/02 13:55:48;;;;;;;;;;;;;;;9.31;58.60;99425.34;5113159;28;19919;-66
2022/02/02 14:01:07;;;;;;;;;;;;;;;9.21;58.21;99431.56;5097011;28;19962;-66
2022/02/02 14:04:13;;;;;;;;;;;;;;;9.20;58.53;99442.41;5089747;28;20283;-66
2022/02/02 14:33:27;;;;;;;;;;;;;;;8.63;63.99;99474.66;5110719;28;19918;-70
2022/02/02 14:35:58;;;;;;;;;;;;;;;8.52;64.92;99466.81;5106530;28;19998;-70
2022/02/02 14:38:23;;;;;;;;;;;;;;;8.47;65.27;99475.25;5103769;28;19912;-69
2022/02/02 14:43:17;;;;;;;;;;;;;;;8.36;66.23;99485.22;5100723;28;19950;-69
2022/02/02 14:45:48;;;;;;;;;;;;;;;8.31;66.91;99485.66;5097487;28;20010;-69
2022/02/02 14:48:28;;;;;;;;;;;;;;;8.28;67.19;99477.06;5093231;28;19966;-69
2022/02/02 14:53:31;;;;;;;;;;;;;;;8.33;67.48;99491.72;5105039;28;20424;-69
2022/02/02 15:10:02;;;;;;;;;;;;;;;8.50;58.27;99514.19;5078704;28;19927;-66
2022/02/02 15:28:52;;;;;;;;;;;;;;;8.10;59.34;99540.97;5093955;28;19961;-71
2022/02/02 15:31:20;;;;;;;;;;;;;;;8.16;59.42;99552.94;5095211;28;19912;-73
2022/02/02 15:33:50;;;;;;;;;;;;;;;8.05;60.97;99590.44;5104930;28;19916;-69
2022/02/02 15:36:51;;;;;;;;;;;;;;;7.97;64.75;99595.63;5107178;28;19919;-69
2022/02/02 15:39:09;;;;;;;;;;;;;;;7.82;65.88;99596.97;5109851;28;20045;-66
2022/02/02 15:41:58;;;;;;;;;;;;;;;7.75;65.97;99587.81;5108287;28;19922;-67
2022/02/02 16:03:11;;;;;;;;;;;;;;;7.15;67.13;99606.47;5102627;28;19922;-69
2022/02/02 16:05:52;;;;;;;;;;;;;;;7.03;67.79;99603.84;5109921;28;19949;-66
2022/02/02 16:08:22;;;;;;;;;;;;;;;6.98;67.51;99613.22;5108170;28;19912;-66
2022/02/02 16:13:44;;;;;;;;;;;;;;;6.81;68.56;99627.13;5107337;28;19919;-68
2022/02/02 16:18:49;;;;;;;;;;;;;;;6.70;69.17;99629.81;5109298;27;19919;-69
2022/02/02 16:37:34;;;;;;;;;;;;;;;6.13;72.17;99664.69;5104940;28;19912;-69
2022/02/02 16:40:01;;;;;;;;;;;;;;;6.06;72.60;99668.81;5093984;28;19915;-70
2022/02/02 16:45:16;;;;;;;;;;;;;;;5.86;72.72;99682.88;5102641;28;20370;-70
2022/02/02 16:47:41;;;;;;;;;;;;;;;5.75;73.14;99680.19;5101879;28;19938;-70
2022/02/02 16:50:09;;;;;;;;;;;;;;;5.67;73.61;99684.41;5098302;28;19924;-70
2022/02/02 16:52:35;;;;;;;;;;;;;;;5.60;73.83;99685.84;5103049;28;19911;-70
2022/02/02 16:55:06;;;;;;;;;;;;;;;5.52;74.96;99686.44;5105528;28;19915;-70
2022/02/02 17:30:40;;;;;;;;;;;;;;;5.96;65.93;99699.81;5101831;28;19946;-69
2022/02/02 17:33:17;;;;;;;;;;;;;;;6.09;64.90;99699.66;5091479;28;20339;-69
2022/02/02 17:38:28;;;;;;;;;;;;;;;6.20;64.48;99715.66;5108952;28;19951;-69
2022/02/02 18:03:21;;;;;;;;;;;;;;;6.23;63.01;99777.47;5105999;28;19916;-69
2022/02/02 18:21:03;;;;;;;;;;;;;;;6.19;64.42;99799.16;5093673;28;19916;-68
2022/02/02 18:24:21;;;;;;;;;;;;;;;6.20;64.27;99814.16;5089656;28;20065;-69
2022/02/02 18:29:04;;;;;;;;;;;;;;;6.12;65.05;99817.41;5094953;28;19923;-69
2022/02/02 18:47:11;;;;;;;;;;;;;;;6.13;64.62;99834.25;5095583;28;19915;-69
2022/02/02 19:00:30;;;;;;;;;;;;;;;6.06;65.40;99855.16;5095149;27;19968;-69
2022/02/02 19:37:41;;;;;;;;;;;;;;;5.62;68.75;99931.28;5101836;28;20681;-69
2022/02/02 19:40:16;;;;;;;;;;;;;;;5.51;69.11;99937.38;5095041;28;19980;-69
2022/02/02 19:52:26;;;;;;;;;;;;;;;5.54;69.25;99933.63;5101992;28;19965;-69
2022/02/02 20:02:04;;;;;;;;;;;;;;;5.38;69.49;99936.56;5090332;28;20002;-66
2022/02/02 20:07:24;;;;;;;;;;;;;;;5.42;69.15;99942.53;5100435;28;20308;-66
2022/02/02 20:10:02;;;;;;;;;;;;;;;5.50;68.58;99934.81;5091020;28;20364;-66
2022/02/02 20:12:35;;;;;;;;;;;;;;;5.36;68.81;99937.66;5109636;28;20385;-67
2022/02/02 20:15:01;;;;;;;;;;;;;;;5.25;69.45;99941.09;5109264;28;20018;-67
2022/02/02 20:17:27;;;;;;;;;;;;;;;5.25;69.75;99935.75;5098651;28;19977;-66
2022/02/02 20:19:56;;;;;;;;;;;;;;;5.26;69.62;99936.63;5099909;28;19912;-66
2022/02/02 20:22:23;;;;;;;;;;;;;;;5.32;69.33;99946.81;5103943;28;19958;-66
2022/02/02 20:24:56;;;;;;;;;;;;;;;5.41;69.07;99946.13;5095845;28;19981;-66
2022/02/02 20:27:21;;;;;;;;;;;;;;;5.49;68.26;99949.09;5098166;28;19958;-66
2022/02/02 20:29:46;;;;;;;;;;;;;;;5.44;68.63;99952.09;5093091;28;19959;-66
2022/02/02 20:32:12;;;;;;;;;;;;;;;5.49;68.66;99957.06;5102775;28;20320;-66
2022/02/02 20:34:37;;;;;;;;;;;;;;;5.42;69.29;99958.47;5093243;28;19912;-66
2022/02/02 20:37:02;;;;;;;;;;;;;;;5.29;69.80;99955.00;5107629;28;19912;-66
2022/02/02 20:39:46;;;;;;;;;;;;;;;5.32;70.08;99962.78;5107560;28;20003;-66
2022/02/02 20:42:13;;;;;;;;;;;;;;;5.27;70.79;99959.59;5101854;28;19912;-66
2022/02/02 21:06:25;;;;;;;;;;;;;;;5.51;69.68;100006.53;5093042;28;19926;-66
2022/02/02 21:14:09;;;;;;;;;;;;;;;5.36;70.79;100041.34;5102416;28;19912;-67
2022/02/02 21:16:38;;;;;;;;;;;;;;;5.57;69.90;100055.75;5100396;28;19918;-70
2022/02/02 21:19:07;;;;;;;;;;;;;;;5.61;69.54;100060.75;5096368;28;19919;-70
2022/02/02 21:21:49;;;;;;;;;;;;;;;5.52;69.82;100072.06;5104391;28;19912;-70
2022/02/02 21:27:14;;;;;;;;;;;;;;;5.40;70.29;100066.75;5102491;28;19912;-70
2022/02/02 21:29:35;;;;;;;;;;;;;;;5.58;70.11;100076.94;5102053;28;19915;-69
2022/02/02 21:32:00;;;;;;;;;;;;;;;5.44;70.26;100081.53;5098209;28;19922;-70
2022/02/02 21:34:26;;;;;;;;;;;;;;;5.63;69.75;100089.91;5101643;28;19995;-70
2022/02/02 21:36:54;;;;;;;;;;;;;;;5.46;70.26;100100.91;5108926;28;19911;-70
2022/02/02 21:39:24;;;;;;;;;;;;;;;5.44;69.82;100102.81;5101377;28;19916;-70
2022/02/02 21:41:52;;;;;;;;;;;;;;;5.51;70.20;100102.28;5110978;28;19943;-70
2022/02/02 21:44:17;;;;;;;;;;;;;;;5.39;70.65;100115.59;5098323;28;19918;-70
2022/02/02 21:46:43;;;;;;;;;;;;;;;5.31;70.96;100120.56;5095407;28;20002;-70
2022/02/02 21:49:15;;;;;;;;;;;;;;;5.47;70.55;100116.75;5095120;28;19955;-69
2022/02/02 21:51:52;;;;;;;;;;;;;;;5.39;70.64;100123.56;5099792;28;19916;-70
2022/02/02 21:54:17;;;;;;;;;;;;;;;5.29;71.29;100122.50;5101368;28;20364;-66
2022/02/02 21:56:42;;;;;;;;;;;;;;;5.28;71.24;100131.41;5093550;28;20002;-67
2022/02/02 21:59:07;;;;;;;;;;;;;;;5.23;71.52;100122.94;5112264;28;19912;-70
2022/02/02 22:01:33;;;;;;;;;;;;;;;5.29;70.46;100118.03;5100566;28;20015;-69
2022/02/02 22:03:58;;;;;;;;;;;;;;;5.19;71.31;100122.28;5095750;28;19965;-69
2022/02/02 22:06:23;;;;;;;;;;;;;;;5.17;71.58;100120.69;5100736;28;19923;-70
2022/02/02 22:08:49;;;;;;;;;;;;;;;5.15;71.60;100126.09;5097797;28;19995;-69
2022/02/02 22:11:14;;;;;;;;;;;;;;;5.25;71.04;100137.81;5105940;28;19961;-69
2022/02/02 22:13:43;;;;;;;;;;;;;;;5.18;71.27;100136.53;5105994;28;19919;-69
2022/02/02 22:16:10;;;;;;;;;;;;;;;5.14;71.06;100134.19;5094560;28;19911;-69
2022/02/02 22:18:37;;;;;;;;;;;;;;;5.19;70.69;100138.22;5107010;28;20332;-69
2022/02/02 22:21:02;;;;;;;;;;;;;;;5.10;71.00;100144.19;5103068;28;19940;-69
2022/02/02 22:23:27;;;;;;;;;;;;;;;5.07;71.25;100149.72;5104872;28;20003;-70
2022/02/02 22:25:54;;;;;;;;;;;;;;;5.10;71.18;100154.81;5102246;28;20689;-70
2022/02/02 22:28:19;;;;;;;;;;;;;;;5.18;70.39;100167.56;5101748;28;19926;-67
2022/02/02 22:30:44;;;;;;;;;;;;;;;5.09;70.92;100165.56;5095885;28;20443;-67
2022/02/02 22:33:10;;;;;;;;;;;;;;;5.17;70.41;100168.53;5103271;28;19916;-67
2022/02/02 22:35:35;;;;;;;;;;;;;;;5.14;70.57;100177.56;5103747;28;19969;-67
2022/02/02 22:38:00;;;;;;;;;;;;;;;5.11;70.02;100175.13;5109057;28;19951;-67
2022/02/02 22:40:27;;;;;;;;;;;;;;;5.04;70.67;100184.47;5109095;28;19918;-66
2022/02/02 22:42:52;;;;;;;;;;;;;;;5.05;70.36;100187.97;5098287;28;20296;-67
2022/02/02 22:45:18;;;;;;;;;;;;;;;5.04;70.50;100186.25;5106178;28;19912;-67
2022/02/02 22:47:45;;;;;;;;;;;;;;;5.02;70.91;100189.03;5103630;28;19923;-67
2022/02/02 22:50:11;;;;;;;;;;;;;;;5.12;69.96;100195.41;5098087;28;20291;-67
2022/02/02 22:52:39;;;;;;;;;;;;;;;5.00;70.59;100201.56;5092529;28;19916;-67
2022/02/02 22:55:05;;;;;;;;;;;;;;;5.00;70.71;100212.19;5103769;28;20373;-69
2022/02/02 22:57:30;;;;;;;;;;;;;;;5.15;69.92;100221.81;5099367;28;19916;-69
2022/02/02 22:59:56;;;;;;;;;;;;;;;5.23;69.86;100214.19;5101748;27;19918;-69
2022/02/02 23:03:24;;;;;;;;;;;;;;;5.14;69.94;100217.44;5106149;28;20379;-69
2022/02/02 23:05:18;;;;;;;;;;;;;;;5.16;69.46;100220.84;5095520;28;19962;-70
2022/02/02 23:07:43;;;;;;;;;;;;;;;5.13;69.86;100229.03;5093569;28;20003;-70
2022/02/02 23:10:09;;;;;;;;;;;;;;;5.05;70.09;100225.16;5103271;28;19944;-70
2022/02/02 23:12:35;;;;;;;;;;;;;;;5.05;70.22;100239.31;5091332;28;19912;-70
2022/02/02 23:15:06;;;;;;;;;;;;;;;5.06;69.86;100240.19;5101047;28;20284;-70
2022/02/02 23:17:32;;;;;;;;;;;;;;;5.02;70.22;100231.53;5092675;28;19919;-70
2022/02/02 23:19:58;;;;;;;;;;;;;;;5.11;69.81;100238.06;5090186;28;19919;-70
2022/02/02 23:22:27;;;;;;;;;;;;;;;5.04;70.04;100242.94;5096916;28;19946;-70
2022/02/02 23:24:56;;;;;;;;;;;;;;;4.99;70.26;100253.00;5108426;28;19912;-70
2022/02/02 23:27:22;;;;;;;;;;;;;;;5.00;70.00;100248.56;5092940;28;19911;-70
2022/02/02 23:29:51;;;;;;;;;;;;;;;5.02;70.09;100258.13;5091405;28;19920;-70
2022/02/02 23:32:19;;;;;;;;;;;;;;;5.09;69.68;100256.75;5105083;28;19964;-70
2022/02/02 23:34:46;;;;;;;;;;;;;;;5.07;69.66;100265.81;5093302;28;20344;-70
2022/02/02 23:37:11;;;;;;;;;;;;;;;4.96;70.37;100263.84;5093330;28;19911;-70
2022/02/02 23:39:38;;;;;;;;;;;;;;;5.02;70.27;100270.53;5106052;28;20265;-69
2022/02/02 23:42:25;;;;;;;;;;;;;;;4.93;70.34;100273.84;5105987;28;19912;-70
2022/02/02 23:44:52;;;;;;;;;;;;;;;4.87;70.97;100271.56;5102769;28;19964;-69
2022/02/02 23:47:18;;;;;;;;;;;;;;;4.93;70.52;100274.66;5105975;28;20007;-69